Time;durP1;ratioP1;P1;durP2;ratioP2;P2;SDS_P1;SDS_P2;PMS_P1;PMS_P2;Temp;Humidity;BMP_temperature;BMP_pressure;BME280_temperature;BME280_humidity;BME280_pressure;Samples;Min_cycle;Max_cycle;Signal;HPM_P1;HPM_P2
2023/10/15 00:01:52;;;;;;;1.38;0.40;;;;;;;13.84;70.58;92659.81;2072065;69;20328;-74
2023/10/15 00:04:18;;;;;;;1.35;0.40;;;;;;;13.43;69.82;92638.78;2071797;69;20618;-73
2023/10/15 00:06:43;;;;;;;0.40;0.40;;;;;;;13.85;68.57;92650.69;2071791;69;20144;-72
2023/10/15 00:09:10;;;;;;;0.60;0.50;;;;;;;13.92;67.83;92652.44;2071965;69;20172;-73
2023/10/15 00:11:36;;;;;;;0.98;0.43;;;;;;;13.93;69.47;92653.19;2072265;69;20572;-73
2023/10/15 00:14:05;;;;;;;1.05;0.40;;;;;;;13.95;69.92;92659.66;2072366;69;20326;-73
2023/10/15 00:16:34;;;;;;;1.25;0.40;;;;;;;13.94;70.32;92658.19;2069134;69;20606;-73
2023/10/15 00:19:10;;;;;;;0.77;0.65;;;;;;;13.92;70.43;92658.09;2072394;69;20157;-72
2023/10/15 00:21:38;;;;;;;0.40;0.40;;;;;;;13.90;71.02;92662.94;2072425;69;20689;-74
2023/10/15 00:24:09;;;;;;;1.13;0.40;;;;;;;13.87;70.97;92653.59;2069264;69;20672;-73
2023/10/15 00:26:38;;;;;;;2.10;0.40;;;;;;;13.88;70.63;92652.25;2072500;69;20152;-72
2023/10/15 00:29:08;;;;;;;1.38;0.50;;;;;;;13.83;71.54;92658.34;2072008;69;20242;-72
2023/10/15 00:31:34;;;;;;;2.00;0.55;;;;;;;13.90;69.93;92655.19;2072340;69;20136;-74
2023/10/15 00:33:59;;;;;;;0.40;0.40;;;;;;;13.53;68.89;92630.06;2069029;69;20204;-74
2023/10/15 00:36:28;;;;;;;1.02;0.43;;;;;;;13.62;69.10;92662.28;2069350;69;20622;-73
2023/10/15 00:38:55;;;;;;;0.55;0.40;;;;;;;13.71;68.47;92659.22;2068892;69;20148;-72
2023/10/15 00:41:27;;;;;;;0.65;0.40;;;;;;;13.46;68.74;92657.28;2072465;69;20152;-73
2023/10/15 00:43:59;;;;;;;0.30;0.30;;;;;;;13.33;69.26;92663.72;2068993;69;20147;-72
2023/10/15 00:46:32;;;;;;;0.30;0.30;;;;;;;13.54;68.36;92665.44;2068895;69;20157;-75
2023/10/15 00:49:09;;;;;;;0.73;0.30;;;;;;;13.46;67.59;92662.22;2068904;69;20148;-73
2023/10/15 00:51:42;;;;;;;1.10;0.50;;;;;;;13.51;68.26;92663.16;2068809;69;20205;-73
2023/10/15 00:54:14;;;;;;;1.27;0.68;;;;;;;13.47;67.94;92664.44;2072531;69;20152;-73
2023/10/15 00:56:41;;;;;;;;;;;;;;;13.61;67.55;92667.22;2063711;69;20162;-72
2023/10/15 01:01:34;;;;;;;1.80;0.40;;;;;;;13.68;66.43;92659.75;2069010;69;20156;-72
2023/10/15 01:04:01;;;;;;;0.82;0.40;;;;;;;13.66;66.90;92662.50;2068902;69;20156;-72
2023/10/15 01:06:38;;;;;;;0.77;0.40;;;;;;;13.64;67.53;92665.94;2068916;69;20223;-72
2023/10/15 01:09:09;;;;;;;0.30;0.30;;;;;;;13.47;68.90;92655.94;2068900;69;20607;-73
2023/10/15 01:11:50;;;;;;;0.40;0.40;;;;;;;13.46;70.14;92662.22;2065626;69;20172;-73
2023/10/15 01:14:25;;;;;;;1.52;0.40;;;;;;;13.53;68.98;92657.59;2065736;69;20140;-74
2023/10/15 01:16:51;;;;;;;0.82;0.50;;;;;;;13.27;69.57;92651.38;2063170;69;20145;-74
2023/10/15 01:19:20;;;;;;;0.40;0.35;;;;;;;13.33;69.18;92649.59;2065490;69;20287;-73
2023/10/15 01:24:19;;;;;;;0.40;0.35;;;;;;;13.22;67.88;92639.84;2065777;69;20133;-74
2023/10/15 01:29:27;;;;;;;0.30;0.30;;;;;;;13.34;68.64;92653.16;2069243;69;20141;-74
2023/10/15 01:32:01;;;;;;;0.82;0.50;;;;;;;13.35;67.50;92660.25;2065899;69;20201;-75
2023/10/15 01:34:28;;;;;;;0.60;0.40;;;;;;;13.34;69.27;92644.66;2065751;69;20150;-76
2023/10/15 01:36:56;;;;;;;1.20;0.40;;;;;;;13.28;69.49;92652.81;2066035;69;20173;-74
2023/10/15 01:39:38;;;;;;;0.77;0.50;;;;;;;12.94;67.79;92658.91;2062768;69;20179;-74
2023/10/15 01:42:06;;;;;;;0.30;0.30;;;;;;;13.09;67.17;92653.97;2065909;69;20530;-74
2023/10/15 01:44:47;;;;;;;1.60;0.40;;;;;;;13.09;66.44;92653.97;2068686;69;20148;-74
2023/10/15 01:47:18;;;;;;;0.63;0.40;;;;;;;13.12;67.27;92658.38;2065712;69;20184;-75
2023/10/15 01:49:46;;;;;;;0.28;0.28;;;;;;;12.93;66.97;92631.28;2065808;69;20153;-74
2023/10/15 01:52:12;;;;;;;0.82;0.40;;;;;;;13.16;67.73;92661.41;2065497;69;20144;-73
2023/10/15 01:54:45;;;;;;;0.63;0.30;;;;;;;13.14;67.77;92662.03;2069082;69;20141;-74
2023/10/15 01:57:14;;;;;;;0.47;0.30;;;;;;;13.21;67.80;92660.97;2068534;69;20140;-75
2023/10/15 01:59:47;;;;;;;0.55;0.43;;;;;;;12.82;68.85;92669.56;2065789;69;20684;-74
2023/10/15 02:02:14;;;;;;;;;;;;;;;12.59;68.71;92661.28;2065981;69;20140;-73
2023/10/15 02:04:46;;;;;;;1.33;0.50;;;;;;;12.58;69.21;92659.84;2065835;69;20049;-74
2023/10/15 02:07:20;;;;;;;0.50;0.50;;;;;;;12.84;68.16;92661.22;2063035;69;20473;-73
2023/10/15 02:09:52;;;;;;;0.80;0.50;;;;;;;12.64;68.13;92662.97;2065798;69;20140;-74
2023/10/15 02:12:19;;;;;;;0.77;0.47;;;;;;;12.60;68.07;92657.09;2069021;69;20157;-73
2023/10/15 02:14:47;;;;;;;1.23;0.47;;;;;;;12.60;67.93;92657.09;2068952;69;20219;-74
2023/10/15 02:17:23;;;;;;;3.03;0.50;;;;;;;12.62;68.19;92651.56;2062651;69;20611;-73
2023/10/15 02:19:50;;;;;;;1.15;0.40;;;;;;;12.46;68.45;92657.09;2065561;69;20152;-73
2023/10/15 02:22:15;;;;;;;1.35;0.70;;;;;;;11.25;71.46;92637.72;2065599;69;20149;-73
2023/10/15 02:24:47;;;;;;;0.73;0.40;;;;;;;12.30;68.71;92661.88;2068976;69;20223;-73
2023/10/15 02:27:27;;;;;;;1.00;0.60;;;;;;;12.53;68.41;92660.97;2065675;69;20179;-74
2023/10/15 02:29:53;;;;;;;0.75;0.55;;;;;;;12.53;68.53;92660.97;2069044;69;20145;-74
2023/10/15 02:34:52;;;;;;;0.82;0.60;;;;;;;12.63;68.05;92662.25;2069090;69;20148;-75
2023/10/15 02:37:19;;;;;;;1.23;0.50;;;;;;;12.54;67.37;92657.53;2068678;69;20291;-75
2023/10/15 02:39:51;;;;;;;0.73;0.50;;;;;;;12.60;67.09;92669.16;2068912;69;20152;-74
2023/10/15 02:42:30;;;;;;;1.17;0.50;;;;;;;12.44;67.91;92657.72;2065287;69;20519;-74
2023/10/15 02:45:00;;;;;;;2.00;0.70;;;;;;;11.95;70.05;92677.66;2068773;69;20153;-73
2023/10/15 02:47:41;;;;;;;0.47;0.47;;;;;;;12.36;68.86;92677.03;2068904;69;20144;-73
2023/10/15 02:50:15;;;;;;;1.23;0.57;;;;;;;12.48;69.39;92673.44;2068223;69;20206;-74
2023/10/15 02:52:44;;;;;;;0.70;0.70;;;;;;;12.53;69.36;92678.66;2068848;69;20124;-73
2023/10/15 02:55:14;;;;;;;0.52;0.50;;;;;;;12.52;69.78;92679.28;2065686;69;20254;-73
2023/10/15 02:57:44;;;;;;;1.42;0.47;;;;;;;11.90;69.23;92683.69;2068933;69;20299;-74
2023/10/15 03:00:13;;;;;;;0.90;0.50;;;;;;;11.97;68.95;92685.53;2065855;69;20257;-74
2023/10/15 03:02:43;;;;;;;0.98;0.52;;;;;;;12.25;68.67;92685.59;2068997;69;20624;-72
2023/10/15 03:05:14;;;;;;;0.85;0.50;;;;;;;12.27;68.62;92686.44;2068993;69;20147;-73
2023/10/15 03:07:43;;;;;;;0.52;0.40;;;;;;;12.20;68.97;92691.03;2069049;69;20590;-74
2023/10/15 03:10:13;;;;;;;1.95;0.43;;;;;;;12.39;67.89;92683.53;2068927;69;20152;-74
2023/10/15 03:12:44;;;;;;;1.25;0.60;;;;;;;12.36;67.88;92687.59;2065083;69;20172;-73
2023/10/15 03:15:14;;;;;;;1.02;0.50;;;;;;;11.81;69.05;92688.13;2068557;69;20192;-73
2023/10/15 03:17:43;;;;;;;1.50;0.50;;;;;;;11.67;69.54;92690.16;2068782;69;20180;-75
2023/10/15 03:22:47;;;;;;;0.68;0.60;;;;;;;12.24;67.78;92689.78;2065647;69;20596;-73
2023/10/15 03:25:13;;;;;;;2.60;0.65;;;;;;;11.76;69.56;92689.25;2065566;69;20230;-74
2023/10/15 03:27:46;;;;;;;0.50;0.40;;;;;;;11.91;68.43;92690.81;2068847;69;20140;-73
2023/10/15 03:30:13;;;;;;;1.92;0.40;;;;;;;11.09;69.67;92691.81;2066006;69;20144;-74
2023/10/15 03:32:44;;;;;;;0.63;0.57;;;;;;;11.54;69.15;92688.00;2062457;69;20228;-74
2023/10/15 03:35:27;;;;;;;0.40;0.40;;;;;;;11.52;69.59;92693.53;2068876;69;20354;-73
2023/10/15 03:37:59;;;;;;;1.60;0.65;;;;;;;11.11;70.28;92689.09;2068878;69;20611;-75
2023/10/15 03:40:32;;;;;;;0.43;0.38;;;;;;;11.24;70.23;92687.72;2068411;69;20145;-74
2023/10/15 03:43:04;;;;;;;1.33;0.52;;;;;;;11.50;70.15;92696.97;2065483;69;20132;-74
2023/10/15 03:45:51;;;;;;;0.85;0.50;;;;;;;11.84;69.28;92700.28;2065138;69;20226;-74
2023/10/15 03:48:21;;;;;;;1.02;0.60;;;;;;;11.83;68.12;92699.56;2065697;69;20125;-74
2023/10/15 03:50:53;;;;;;;1.42;0.70;;;;;;;11.30;69.31;92698.59;2068720;69;20152;-74
2023/10/15 03:53:21;;;;;;;1.45;0.70;;;;;;;11.55;68.60;92704.31;2068904;69;20671;-73
2023/10/15 03:55:50;;;;;;;1.40;0.50;;;;;;;11.68;67.76;92692.38;2068687;69;20203;-73
2023/10/15 03:58:21;;;;;;;2.50;0.40;;;;;;;11.79;67.05;92704.94;2068621;69;20137;-73
2023/10/15 04:00:48;;;;;;;1.15;0.50;;;;;;;11.69;66.97;92701.56;2068741;69;20148;-74
2023/10/15 04:03:26;;;;;;;0.57;0.57;;;;;;;11.87;66.58;92707.53;2068839;69;20489;-73
2023/10/15 04:05:53;;;;;;;0.68;0.50;;;;;;;11.62;67.41;92708.94;2068750;69;20144;-75
2023/10/15 04:08:19;;;;;;;0.55;0.40;;;;;;;11.76;67.34;92703.34;2068754;69;20220;-74
2023/10/15 04:10:55;;;;;;;2.25;0.60;;;;;;;11.83;66.71;92708.03;2068807;69;20178;-74
2023/10/15 04:13:21;;;;;;;1.42;0.60;;;;;;;11.76;66.38;92705.44;2068753;69;20151;-73
2023/10/15 04:15:48;;;;;;;0.65;0.55;;;;;;;11.52;66.94;92704.81;2068511;69;20148;-73
2023/10/15 04:18:13;;;;;;;0.80;0.70;;;;;;;11.65;66.65;92721.81;2065392;69;20234;-75
2023/10/15 04:20:42;;;;;;;0.80;0.60;;;;;;;11.55;67.03;92704.31;2068957;69;20596;-75
2023/10/15 04:23:24;;;;;;;0.77;0.50;;;;;;;11.52;67.30;92711.16;2068778;69;20145;-74
2023/10/15 04:25:50;;;;;;;1.50;0.50;;;;;;;11.20;67.54;92710.03;2068946;69;20175;-75
2023/10/15 04:28:18;;;;;;;0.98;0.50;;;;;;;11.54;67.52;92704.91;2068747;69;20141;-75
2023/10/15 04:30:46;;;;;;;1.40;0.70;;;;;;;11.46;67.55;92713.66;2068998;69;20172;-75
2023/10/15 04:33:13;;;;;;;0.90;0.70;;;;;;;10.48;69.89;92710.69;2068972;69;20202;-74
2023/10/15 04:35:43;;;;;;;1.45;0.70;;;;;;;10.74;69.72;92711.53;2068553;69;20152;-75
2023/10/15 04:38:09;;;;;;;1.98;0.63;;;;;;;11.11;69.95;92700.38;2068644;69;20153;-74
2023/10/15 04:41:35;;;;;;;3.90;0.60;;;;;;;10.94;69.73;92697.94;2068904;69;20228;-74
2023/10/15 04:43:41;;;;;;;0.95;0.57;;;;;;;10.14;71.90;92714.91;2065971;69;20709;-74
2023/10/15 04:46:07;;;;;;;2.00;0.70;;;;;;;10.28;72.20;92706.63;2068442;69;20209;-75
2023/10/15 04:48:36;;;;;;;1.00;0.60;;;;;;;9.83;73.75;92718.59;2068791;69;20141;-74
2023/10/15 04:51:11;;;;;;;3.42;0.77;;;;;;;10.33;72.66;92706.25;2068766;69;20180;-74
2023/10/15 04:53:37;;;;;;;1.48;0.65;;;;;;;10.74;71.27;92708.00;2068661;69;20220;-74
2023/10/15 04:56:04;;;;;;;1.45;0.57;;;;;;;10.81;70.18;92709.81;2068777;69;20592;-75
2023/10/15 04:58:31;;;;;;;2.03;0.90;;;;;;;10.92;69.40;92712.63;2069219;69;20236;-74
2023/10/15 05:01:00;;;;;;;2.17;0.70;;;;;;;10.95;69.57;92710.69;2069164;69;20228;-74
2023/10/15 05:03:25;;;;;;;1.67;0.60;;;;;;;11.02;69.49;92708.97;2069080;69;20168;-74
2023/10/15 05:05:51;;;;;;;1.08;0.60;;;;;;;11.06;68.92;92712.00;2068889;69;20176;-75
2023/10/15 05:08:24;;;;;;;0.77;0.60;;;;;;;11.14;68.34;92704.03;2069167;69;20548;-76
2023/10/15 05:10:50;;;;;;;1.35;0.60;;;;;;;11.05;68.66;92710.56;2069044;69;20165;-75
2023/10/15 05:13:17;;;;;;;0.88;0.70;;;;;;;11.07;69.38;92710.66;2069242;69;20600;-76
2023/10/15 05:15:48;;;;;;;1.60;0.60;;;;;;;11.07;68.17;92710.66;2069155;69;20512;-76
2023/10/15 05:18:15;;;;;;;1.27;0.50;;;;;;;11.08;68.29;92710.03;2069318;69;20148;-77
2023/10/15 05:20:43;;;;;;;1.90;0.70;;;;;;;11.12;68.10;92709.53;2069268;69;20176;-76
2023/10/15 05:23:09;;;;;;;2.15;0.60;;;;;;;11.09;67.77;92703.06;2069426;69;20145;-74
2023/10/15 05:25:39;;;;;;;0.80;0.70;;;;;;;10.90;68.92;92709.72;2069182;69;20143;-76
2023/10/15 05:28:05;;;;;;;1.30;0.60;;;;;;;11.04;68.82;92712.63;2069053;69;20144;-75
2023/10/15 05:30:31;;;;;;;0.85;0.57;;;;;;;11.23;67.66;92719.34;2069097;69;20615;-74
2023/10/15 05:33:00;;;;;;;2.70;0.73;;;;;;;10.68;68.81;92726.00;2069181;69;20156;-76
2023/10/15 05:35:30;;;;;;;1.80;0.82;;;;;;;10.88;68.60;92726.47;2069328;69;20176;-75
2023/10/15 05:37:56;;;;;;;1.08;0.70;;;;;;;10.93;68.47;92727.44;2069462;69;20152;-74
2023/10/15 05:40:21;;;;;;;1.95;0.70;;;;;;;10.62;68.83;92733.31;2069403;69;20149;-74
2023/10/15 05:42:48;;;;;;;2.30;0.70;;;;;;;11.00;67.93;92737.75;2069084;69;20148;-75
2023/10/15 05:45:14;;;;;;;1.20;1.00;;;;;;;10.68;68.37;92742.91;2069381;69;20161;-76
2023/10/15 05:47:44;;;;;;;3.08;0.82;;;;;;;10.73;68.98;92741.06;2069482;69;20166;-75
2023/10/15 05:50:12;;;;;;;1.77;0.70;;;;;;;10.81;68.79;92741.56;2069398;69;20164;-74
2023/10/15 05:52:39;;;;;;;3.20;0.70;;;;;;;10.79;67.91;92741.41;2066176;69;20180;-74
2023/10/15 05:55:06;;;;;;;1.08;0.75;;;;;;;10.41;68.57;92759.50;2068778;69;20220;-74
2023/10/15 05:57:33;;;;;;;2.80;0.90;;;;;;;10.29;69.79;92751.03;2060324;69;20145;-75
2023/10/15 06:00:17;;;;;;;1.75;0.70;;;;;;;10.29;69.50;92753.09;2065720;69;20505;-76
2023/10/15 06:02:47;;;;;;;3.08;1.10;;;;;;;10.28;69.90;92762.91;2065985;69;20163;-74
2023/10/15 06:05:16;;;;;;;2.30;0.80;;;;;;;10.28;69.57;92752.38;2069064;69;20536;-75
2023/10/15 06:07:46;;;;;;;2.33;1.15;;;;;;;10.14;70.54;92757.81;2068808;69;20240;-74
2023/10/15 06:10:12;;;;;;;3.25;0.80;;;;;;;10.22;70.42;92763.22;2068925;69;20141;-73
2023/10/15 06:12:38;;;;;;;1.35;0.70;;;;;;;10.66;69.29;92758.91;2068708;69;20606;-74
2023/10/15 06:15:06;;;;;;;1.92;0.70;;;;;;;10.86;68.64;92765.06;2068815;69;20136;-73
2023/10/15 06:17:32;;;;;;;3.33;0.98;;;;;;;10.81;68.96;92766.13;2069004;69;20148;-74
2023/10/15 06:19:58;;;;;;;3.67;1.00;;;;;;;10.93;68.44;92778.88;2069091;69;20161;-74
2023/10/15 06:22:25;;;;;;;2.72;1.05;;;;;;;10.76;68.87;92770.06;2065700;69;20148;-75
2023/10/15 06:24:52;;;;;;;2.47;1.10;;;;;;;10.82;68.53;92782.44;2065490;69;20579;-74
2023/10/15 06:27:18;;;;;;;3.45;1.40;;;;;;;10.58;68.34;92778.88;2069078;69;20141;-75
2023/10/15 06:29:44;;;;;;;3.28;1.00;;;;;;;10.57;68.73;92787.91;2069051;69;20223;-75
2023/10/15 06:32:11;;;;;;;1.80;1.00;;;;;;;10.34;68.80;92791.41;2069317;69;20168;-74
2023/10/15 06:34:39;;;;;;;2.00;0.90;;;;;;;10.30;69.45;92789.06;2069099;69;20164;-74
2023/10/15 06:37:09;;;;;;;2.53;1.08;;;;;;;10.74;68.19;92784.75;2069045;69;20627;-74
2023/10/15 06:39:37;;;;;;;2.88;1.30;;;;;;;10.81;67.20;92780.22;2069151;69;20133;-74
2023/10/15 06:42:04;;;;;;;3.88;1.60;;;;;;;10.86;66.46;92793.97;2065526;69;20517;-74
2023/10/15 06:44:30;;;;;;;5.80;1.98;;;;;;;10.16;68.34;92788.88;2068426;69;20215;-74
2023/10/15 06:46:56;;;;;;;6.53;2.60;;;;;;;10.45;67.97;92795.63;2069141;69;20569;-73
2023/10/15 06:49:21;;;;;;;3.65;1.48;;;;;;;10.12;68.98;92797.06;2069134;69;20156;-77
2023/10/15 06:51:47;;;;;;;4.38;1.27;;;;;;;10.13;68.95;92800.63;2069058;69;20137;-74
2023/10/15 06:54:12;;;;;;;1.92;1.15;;;;;;;10.60;68.06;92812.03;2068976;69;20152;-74
2023/10/15 06:56:38;;;;;;;2.67;1.40;;;;;;;10.97;66.62;92811.47;2068986;69;20153;-78
2023/10/15 06:59:04;;;;;;;3.67;1.30;;;;;;;10.99;66.46;92817.22;2065551;69;20600;-76
2023/10/15 07:01:30;;;;;;;2.75;1.08;;;;;;;11.19;66.46;92824.09;2069181;69;20248;-74
2023/10/15 07:03:56;;;;;;;3.80;1.30;;;;;;;11.23;65.92;92818.72;2069131;69;20195;-75
2023/10/15 07:06:23;;;;;;;3.80;1.75;;;;;;;10.45;66.88;92812.50;2066096;69;20240;-74
2023/10/15 07:08:50;;;;;;;2.50;1.23;;;;;;;10.57;67.51;92821.69;2069333;69;20149;-76
2023/10/15 07:11:17;;;;;;;2.25;1.23;;;;;;;10.89;66.78;92822.97;2069187;69;20314;-76
2023/10/15 07:13:43;;;;;;;4.00;1.67;;;;;;;10.88;66.25;92818.69;2068764;69;20141;-75
2023/10/15 07:16:09;;;;;;;2.20;1.50;;;;;;;10.93;65.53;92826.03;2069263;69;20185;-73
2023/10/15 07:18:34;;;;;;;2.95;1.38;;;;;;;11.03;64.78;92828.72;2068711;69;20144;-76
2023/10/15 07:21:00;;;;;;;6.53;2.38;;;;;;;11.31;64.34;92824.06;2068976;69;20161;-75
2023/10/15 07:23:25;;;;;;;3.47;1.50;;;;;;;11.04;64.09;92821.75;2068809;69;20403;-76
2023/10/15 07:25:53;;;;;;;2.67;1.50;;;;;;;10.62;65.93;92818.50;2069024;69;20294;-76
2023/10/15 07:28:19;;;;;;;2.17;1.38;;;;;;;10.59;66.50;92821.84;2068947;69;20236;-74
2023/10/15 07:30:50;;;;;;;3.05;1.25;;;;;;;11.18;65.37;92833.91;2068710;69;20620;-76
2023/10/15 07:33:15;;;;;;;3.95;1.80;;;;;;;10.52;66.12;92826.34;2065756;69;20167;-76
2023/10/15 07:35:41;;;;;;;2.60;1.30;;;;;;;10.53;66.64;92835.50;2069130;69;20592;-76
2023/10/15 07:38:07;;;;;;;3.72;1.52;;;;;;;10.43;66.20;92836.34;2069001;69;20152;-77
2023/10/15 07:40:33;;;;;;;2.65;1.55;;;;;;;10.34;66.65;92820.28;2068988;69;20581;-77
2023/10/15 07:42:59;;;;;;;4.90;2.00;;;;;;;10.92;65.54;92841.47;2068890;69;20145;-73
2023/10/15 07:45:28;;;;;;;5.57;1.70;;;;;;;10.94;65.08;92835.94;2068860;69;20136;-73
2023/10/15 07:48:01;;;;;;;3.78;1.33;;;;;;;11.07;64.89;92845.88;2065565;69;20236;-76
2023/10/15 07:50:27;;;;;;;;;;;;;;;10.80;65.57;92844.25;2068894;69;20155;-76
2023/10/15 07:52:54;;;;;;;4.10;1.92;;;;;;;10.71;65.29;92844.38;2068936;69;20045;-74
2023/10/15 07:55:23;;;;;;;4.68;1.70;;;;;;;10.48;66.59;92847.84;2068895;69;20157;-73
2023/10/15 07:57:50;;;;;;;4.72;1.50;;;;;;;10.80;66.23;92852.72;2068801;69;20620;-75
2023/10/15 08:00:22;;;;;;;4.63;1.80;;;;;;;10.97;65.03;92848.09;2068858;69;20135;-72
2023/10/15 08:02:52;;;;;;;2.35;1.50;;;;;;;10.84;65.46;92849.41;2065727;69;20226;-73
2023/10/15 08:05:20;;;;;;;3.08;1.40;;;;;;;10.62;65.89;92851.56;2068801;69;20203;-73
2023/10/15 08:07:48;;;;;;;3.72;1.40;;;;;;;10.80;65.37;92847.06;2065245;69;20691;-74
2023/10/15 08:10:14;;;;;;;2.85;1.25;;;;;;;11.01;64.24;92845.53;2068773;69;20176;-75
2023/10/15 08:12:41;;;;;;;3.05;1.30;;;;;;;10.80;64.09;92841.44;2068932;69;20156;-75
2023/10/15 08:15:07;;;;;;;3.60;1.30;;;;;;;11.43;64.10;92850.91;2068901;69;20148;-78
2023/10/15 08:17:33;;;;;;;3.38;1.30;;;;;;;11.24;63.95;92854.00;2068939;69;20144;-75
2023/10/15 08:19:59;;;;;;;4.13;1.42;;;;;;;11.35;63.45;92858.88;2068567;69;20149;-76
2023/10/15 08:22:25;;;;;;;2.47;1.23;;;;;;;11.50;63.64;92854.84;2065342;69;20514;-73
2023/10/15 08:24:52;;;;;;;3.35;1.30;;;;;;;11.65;62.89;92859.25;2068584;69;20168;-76
2023/10/15 08:27:17;;;;;;;3.42;1.30;;;;;;;12.04;62.10;92853.03;2068673;69;20137;-74
2023/10/15 08:29:44;;;;;;;2.88;1.42;;;;;;;11.70;63.07;92847.56;2068948;69;20141;-73
2023/10/15 08:32:18;;;;;;;3.75;1.30;;;;;;;11.86;63.04;92847.06;2069174;69;20169;-74
2023/10/15 08:34:44;;;;;;;2.53;1.30;;;;;;;12.18;61.52;92848.94;2069333;69;20172;-77
2023/10/15 08:37:10;;;;;;;2.42;1.35;;;;;;;12.05;61.90;92848.88;2069421;69;20660;-77
2023/10/15 08:39:38;;;;;;;3.58;1.40;;;;;;;12.50;60.70;92837.28;2069605;69;20148;-77
2023/10/15 08:42:08;;;;;;;4.25;1.33;;;;;;;12.54;60.54;92838.25;2069190;69;20183;-73
2023/10/15 08:44:34;;;;;;;3.70;1.30;;;;;;;12.70;60.06;92836.34;2069033;69;20232;-75
2023/10/15 08:47:04;;;;;;;2.35;1.30;;;;;;;13.19;60.75;92846.69;2069612;69;20147;-75
2023/10/15 08:49:34;;;;;;;2.45;1.40;;;;;;;12.79;59.73;92840.34;2069329;69;20140;-75
2023/10/15 08:52:00;;;;;;;3.30;1.23;;;;;;;12.91;58.90;92846.63;2069344;69;20137;-75
2023/10/15 08:54:28;;;;;;;4.75;2.15;;;;;;;12.54;59.28;92840.34;2069273;69;20634;-78
2023/10/15 08:56:56;;;;;;;3.85;1.70;;;;;;;12.66;58.65;92836.09;2066158;69;20108;-73
2023/10/15 08:59:22;;;;;;;2.38;1.23;;;;;;;12.31;59.40;92832.72;2066078;69;20244;-77
2023/10/15 09:01:50;;;;;;;2.38;1.10;;;;;;;12.72;59.15;92827.22;2069495;69;20155;-77
2023/10/15 09:04:16;;;;;;;2.20;1.58;;;;;;;11.99;59.67;92832.31;2069208;69;20592;-76
2023/10/15 09:06:47;;;;;;;3.90;1.30;;;;;;;12.01;60.17;92828.91;2069340;69;20227;-75
2023/10/15 09:09:13;;;;;;;3.58;1.42;;;;;;;12.11;59.43;92829.47;2069423;69;20153;-73
2023/10/15 09:11:42;;;;;;;2.03;1.40;;;;;;;12.10;60.40;92828.00;2069253;69;20160;-73
2023/10/15 09:14:13;;;;;;;2.72;1.30;;;;;;;12.04;60.10;92831.22;2069105;69;20674;-77
2023/10/15 09:16:48;;;;;;;2.38;1.30;;;;;;;11.74;61.50;92823.78;2069535;69;20220;-76
2023/10/15 09:19:14;;;;;;;2.53;1.23;;;;;;;12.23;60.00;92823.78;2069550;69;20144;-75
2023/10/15 09:21:40;;;;;;;3.55;1.60;;;;;;;12.76;58.17;92823.91;2069296;69;20195;-74
2023/10/15 09:24:06;;;;;;;4.03;1.80;;;;;;;13.21;57.66;92815.72;2065593;69;20137;-75
2023/10/15 09:26:39;;;;;;;3.15;1.63;;;;;;;12.54;58.19;92818.47;2069273;69;20168;-74
2023/10/15 09:29:21;;;;;;;2.53;1.23;;;;;;;13.66;57.14;92810.31;2065987;69;20315;-74
2023/10/15 09:31:49;;;;;;;2.08;1.33;;;;;;;14.36;56.01;92810.94;2066134;69;20147;-76
2023/10/15 09:34:14;;;;;;;2.38;1.20;;;;;;;14.46;52.48;92817.81;2069325;69;20597;-76
2023/10/15 09:36:40;;;;;;;3.22;1.27;;;;;;;14.51;53.07;92824.44;2069481;69;20322;-76
2023/10/15 09:39:12;;;;;;;3.70;1.55;;;;;;;15.59;51.84;92820.16;2066383;69;20195;-77
2023/10/15 09:41:41;;;;;;;;;;;;;;;15.41;50.00;92815.13;2069695;69;20117;-76
2023/10/15 09:44:15;;;;;;;1.00;0.70;;;;;;;15.07;50.17;92819.22;2069322;69;20107;-77
2023/10/15 09:46:43;;;;;;;3.83;1.23;;;;;;;15.55;49.02;92814.31;2069438;69;20167;-75
2023/10/15 09:49:10;;;;;;;2.90;0.90;;;;;;;15.24;50.10;92807.25;2065749;69;20140;-79
2023/10/15 09:51:40;;;;;;;1.00;0.75;;;;;;;14.72;49.32;92812.69;2069232;69;20145;-75
2023/10/15 09:54:14;;;;;;;1.25;0.70;;;;;;;14.34;50.63;92811.56;2069195;69;20306;-78
2023/10/15 09:56:41;;;;;;;3.92;0.82;;;;;;;13.74;52.16;92818.47;2069239;69;20156;-77
2023/10/15 09:59:07;;;;;;;1.70;0.90;;;;;;;13.09;54.57;92820.72;2071578;69;20144;-73
2023/10/15 10:01:38;;;;;;;1.30;0.88;;;;;;;12.60;55.41;92824.47;2072739;69;20180;-73
2023/10/15 10:04:15;;;;;;;1.00;0.60;;;;;;;12.58;56.92;92821.53;2072650;69;20204;-74
2023/10/15 10:06:55;;;;;;;3.42;1.17;;;;;;;12.41;58.70;92827.63;2072509;69;20144;-73
2023/10/15 10:09:51;;;;;;;2.28;1.50;;;;;;;12.71;59.98;92832.16;2073411;69;20191;-73
2023/10/15 10:12:32;;;;;;;3.92;1.60;;;;;;;13.38;58.69;92831.50;2073319;69;20160;-73
2023/10/15 10:15:22;;;;;;;1.42;0.88;;;;;;;13.68;59.33;92830.22;2074872;69;20184;-76
2023/10/15 10:17:50;;;;;;;1.73;0.93;;;;;;;14.14;57.84;92839.59;2073880;69;20577;-75
2023/10/15 10:20:19;;;;;;;11.55;4.55;;;;;;;14.06;57.59;92829.97;2072759;69;20144;-76
2023/10/15 10:22:57;;;;;;;21.95;9.93;;;;;;;14.39;59.48;92826.66;2072535;69;20155;-73
2023/10/15 10:25:36;;;;;;;7.40;2.50;;;;;;;16.86;54.12;92832.63;2072778;69;20172;-74
2023/10/15 10:28:06;;;;;;;1.30;0.90;;;;;;;16.51;49.84;92816.28;2072501;69;20212;-74
2023/10/15 10:30:32;;;;;;;3.25;0.85;;;;;;;17.61;49.21;92814.09;2072485;69;20156;-74
2023/10/15 10:33:01;;;;;;;3.65;1.05;;;;;;;19.20;47.36;92810.94;2069140;69;20218;-75
2023/10/15 10:35:43;;;;;;;2.97;1.20;;;;;;;19.85;43.77;92806.41;2072617;69;20239;-77
2023/10/15 10:38:18;;;;;;;2.30;1.40;;;;;;;21.78;41.08;92796.13;2066486;69;20148;-80
2023/10/15 10:40:48;;;;;;;2.05;1.08;;;;;;;22.27;39.96;92791.41;2069721;69;20201;-76
2023/10/15 10:43:23;;;;;;;2.15;0.70;;;;;;;24.01;39.23;92789.81;2072414;69;20136;-76
2023/10/15 10:46:02;;;;;;;2.22;0.95;;;;;;;24.82;37.78;92789.25;2072312;69;20538;-77
2023/10/15 10:48:33;;;;;;;2.00;1.38;;;;;;;25.73;36.32;92794.25;2072289;69;20146;-77
2023/10/15 10:51:21;;;;;;;2.47;1.30;;;;;;;27.03;35.44;92794.00;2072201;69;20594;-80
2023/10/15 10:53:56;;;;;;;1.35;0.82;;;;;;;27.23;33.68;92788.25;2072167;69;20309;-76
2023/10/15 10:56:42;;;;;;;0.80;0.60;;;;;;;25.71;34.32;92792.09;2068729;69;20136;-75
2023/10/15 10:59:09;;;;;;;0.90;0.80;;;;;;;25.37;34.34;92783.22;2069290;69;20224;-76
2023/10/15 11:01:48;;;;;;;0.50;0.50;;;;;;;24.60;34.58;92775.34;2072257;69;20148;-76
2023/10/15 11:04:18;;;;;;;1.40;1.00;;;;;;;26.29;32.68;92775.78;2072223;69;20148;-78
2023/10/15 11:06:48;;;;;;;2.63;0.93;;;;;;;28.80;31.02;92770.44;2072102;69;20140;-78
2023/10/15 11:09:19;;;;;;;1.42;0.80;;;;;;;29.48;30.02;92773.56;2072453;69;20240;-76
2023/10/15 11:11:49;;;;;;;1.77;0.93;;;;;;;27.52;29.51;92770.88;2072431;69;20152;-78
2023/10/15 11:14:16;;;;;;;1.17;0.65;;;;;;;23.10;34.58;92768.44;2069196;69;20144;-78
2023/10/15 11:16:43;;;;;;;1.90;1.02;;;;;;;29.33;29.81;92772.25;2072364;69;20155;-79
2023/10/15 11:19:25;;;;;;;1.77;0.93;;;;;;;23.84;33.73;92757.25;2072299;69;20235;-76
2023/10/15 11:21:52;;;;;;;;;;;;;;;24.92;32.02;92759.81;2072481;69;20168;-78
2023/10/15 11:24:24;;;;;;;0.70;0.52;;;;;;;29.05;30.26;92755.81;2072472;69;20200;-79
2023/10/15 11:26:54;;;;;;;2.55;1.60;;;;;;;27.84;31.79;92750.59;2072624;69;20144;-80
2023/10/15 11:29:22;;;;;;;0.98;0.60;;;;;;;30.74;29.13;92762.75;2072305;69;20152;-76
2023/10/15 11:31:51;;;;;;;1.00;0.40;;;;;;;33.59;24.45;92768.25;2072135;69;20151;-79
2023/10/15 11:34:20;;;;;;;0.98;0.60;;;;;;;29.21;28.19;92752.78;2072549;69;20598;-79
2023/10/15 11:36:50;;;;;;;0.93;0.60;;;;;;;25.74;29.73;92752.44;2072377;69;20306;-78
2023/10/15 11:39:42;;;;;;;1.10;0.90;;;;;;;31.80;27.13;92752.34;2069296;69;20507;-79
2023/10/15 11:42:08;;;;;;;1.05;0.50;;;;;;;30.97;25.99;92742.78;2068916;69;20152;-75
2023/10/15 11:44:37;;;;;;;0.90;0.70;;;;;;;34.53;24.40;92762.16;2072993;69;20156;-78
2023/10/15 11:47:08;;;;;;;0.77;0.40;;;;;;;30.03;26.22;92749.09;2071719;69;20622;-79
2023/10/15 11:49:38;;;;;;;0.53;0.40;;;;;;;25.69;29.63;92745.22;2075429;69;20655;-78
2023/10/15 11:52:05;;;;;;;0.90;0.60;;;;;;;21.75;34.87;92738.06;2075230;69;20163;-76
2023/10/15 11:54:31;;;;;;;4.72;2.10;;;;;;;20.81;37.42;92741.75;2075416;69;20182;-76
2023/10/15 11:57:04;;;;;;;2.03;0.80;;;;;;;20.99;37.74;92741.44;2075100;69;20601;-77
2023/10/15 11:59:38;;;;;;;2.50;0.68;;;;;;;19.65;39.46;92738.75;2072206;69;20140;-77